sensor_id;sensor_type;location;lat;lon;timestamp;temperature;humidity
4584;DHT22;2304;47.606;12.186;2023-10-09T00:03:19;16.00;85.00
4584;DHT22;2304;47.606;12.186;2023-10-09T00:08:23;16.00;85.00
4584;DHT22;2304;47.606;12.186;2023-10-09T00:13:30;16.00;85.60
4584;DHT22;2304;47.606;12.186;2023-10-09T00:18:35;15.90;86.30
4584;DHT22;2304;47.606;12.186;2023-10-09T00:23:36;15.90;86.20
4584;DHT22;2304;47.606;12.186;2023-10-09T00:28:39;15.90;86.00
4584;DHT22;2304;47.606;12.186;2023-10-09T00:33:46;16.00;85.60
4584;DHT22;2304;47.606;12.186;2023-10-09T00:38:48;15.90;85.10
4584;DHT22;2304;47.606;12.186;2023-10-09T00:43:52;15.90;84.80
4584;DHT22;2304;47.606;12.186;2023-10-09T00:48:57;15.90;84.60
4584;DHT22;2304;47.606;12.186;2023-10-09T00:54:05;15.80;84.80
4584;DHT22;2304;47.606;12.186;2023-10-09T00:59:15;15.80;85.10
4584;DHT22;2304;47.606;12.186;2023-10-09T01:04:22;15.70;85.70
4584;DHT22;2304;47.606;12.186;2023-10-09T01:09:26;15.60;86.50
4584;DHT22;2304;47.606;12.186;2023-10-09T01:14:29;15.60;86.80
4584;DHT22;2304;47.606;12.186;2023-10-09T01:19:33;15.50;86.70
4584;DHT22;2304;47.606;12.186;2023-10-09T01:24:36;15.40;87.00
4584;DHT22;2304;47.606;12.186;2023-10-09T01:29:39;15.40;87.20
4584;DHT22;2304;47.606;12.186;2023-10-09T01:34:42;15.40;87.40
4584;DHT22;2304;47.606;12.186;2023-10-09T01:39:47;15.40;87.30
4584;DHT22;2304;47.606;12.186;2023-10-09T01:44:49;15.40;86.90
4584;DHT22;2304;47.606;12.186;2023-10-09T01:49:52;15.30;86.50
4584;DHT22;2304;47.606;12.186;2023-10-09T01:54:56;15.40;86.10
4584;DHT22;2304;47.606;12.186;2023-10-09T02:00:07;15.20;85.70
4584;DHT22;2304;47.606;12.186;2023-10-09T02:05:09;15.40;86.10
4584;DHT22;2304;47.606;12.186;2023-10-09T02:10:14;15.30;84.30
4584;DHT22;2304;47.606;12.186;2023-10-09T02:15:32;15.30;84.20
4584;DHT22;2304;47.606;12.186;2023-10-09T02:21:05;15.20;84.10
4584;DHT22;2304;47.606;12.186;2023-10-09T02:26:16;15.20;84.10
4584;DHT22;2304;47.606;12.186;2023-10-09T02:31:20;15.20;83.80
4584;DHT22;2304;47.606;12.186;2023-10-09T02:36:23;15.20;83.60
4584;DHT22;2304;47.606;12.186;2023-10-09T02:41:30;15.30;83.20
4584;DHT22;2304;47.606;12.186;2023-10-09T02:46:34;15.30;83.20
4584;DHT22;2304;47.606;12.186;2023-10-09T02:51:36;15.10;83.50
4584;DHT22;2304;47.606;12.186;2023-10-09T02:56:43;15.10;83.70
4584;DHT22;2304;47.606;12.186;2023-10-09T03:01:49;15.10;83.30
4584;DHT22;2304;47.606;12.186;2023-10-09T03:06:53;15.10;83.20
4584;DHT22;2304;47.606;12.186;2023-10-09T03:12:00;15.10;82.60
4584;DHT22;2304;47.606;12.186;2023-10-09T03:17:04;15.20;82.50
4584;DHT22;2304;47.606;12.186;2023-10-09T03:22:08;15.10;82.50
4584;DHT22;2304;47.606;12.186;2023-10-09T03:27:12;15.10;82.70
4584;DHT22;2304;47.606;12.186;2023-10-09T03:32:14;15.00;82.70
4584;DHT22;2304;47.606;12.186;2023-10-09T03:37:16;15.10;82.50
4584;DHT22;2304;47.606;12.186;2023-10-09T03:42:30;15.00;82.40
4584;DHT22;2304;47.606;12.186;2023-10-09T03:47:34;15.00;82.50
4584;DHT22;2304;47.606;12.186;2023-10-09T03:52:36;14.90;82.70
4584;DHT22;2304;47.606;12.186;2023-10-09T03:57:40;15.00;82.50
4584;DHT22;2304;47.606;12.186;2023-10-09T04:02:46;14.90;82.40
4584;DHT22;2304;47.606;12.186;2023-10-09T04:07:50;14.90;82.40
4584;DHT22;2304;47.606;12.186;2023-10-09T04:12:55;14.90;82.30
4584;DHT22;2304;47.606;12.186;2023-10-09T04:17:59;14.80;82.10
4584;DHT22;2304;47.606;12.186;2023-10-09T04:23:03;14.70;82.00
4584;DHT22;2304;47.606;12.186;2023-10-09T04:28:08;14.70;82.30
4584;DHT22;2304;47.606;12.186;2023-10-09T04:33:19;14.70;82.00
4584;DHT22;2304;47.606;12.186;2023-10-09T04:38:35;14.70;81.70
4584;DHT22;2304;47.606;12.186;2023-10-09T04:43:39;14.90;81.70
4584;DHT22;2304;47.606;12.186;2023-10-09T04:48:45;14.70;81.50
4584;DHT22;2304;47.606;12.186;2023-10-09T04:53:47;14.70;81.30
4584;DHT22;2304;47.606;12.186;2023-10-09T04:59:02;14.60;80.90
4584;DHT22;2304;47.606;12.186;2023-10-09T05:04:08;14.60;80.90
4584;DHT22;2304;47.606;12.186;2023-10-09T05:09:27;14.60;80.90
4584;DHT22;2304;47.606;12.186;2023-10-09T05:14:51;14.50;80.60
4584;DHT22;2304;47.606;12.186;2023-10-09T05:20:09;14.50;80.80
4584;DHT22;2304;47.606;12.186;2023-10-09T05:25:28;14.40;81.40
4584;DHT22;2304;47.606;12.186;2023-10-09T05:30:57;14.30;82.30
4584;DHT22;2304;47.606;12.186;2023-10-09T05:36:09;14.30;82.40
4584;DHT22;2304;47.606;12.186;2023-10-09T05:41:31;14.20;82.80
4584;DHT22;2304;47.606;12.186;2023-10-09T05:46:49;14.40;82.90
4584;DHT22;2304;47.606;12.186;2023-10-09T05:52:14;14.60;82.60
4584;DHT22;2304;47.606;12.186;2023-10-09T05:57:54;14.30;82.80
4584;DHT22;2304;47.606;12.186;2023-10-09T06:03:15;14.40;82.60
4584;DHT22;2304;47.606;12.186;2023-10-09T06:08:28;14.40;82.70
4584;DHT22;2304;47.606;12.186;2023-10-09T06:14:01;14.40;82.80
4584;DHT22;2304;47.606;12.186;2023-10-09T06:19:06;14.50;82.40
4584;DHT22;2304;47.606;12.186;2023-10-09T06:24:13;14.50;82.30
4584;DHT22;2304;47.606;12.186;2023-10-09T06:29:18;14.50;82.50
4584;DHT22;2304;47.606;12.186;2023-10-09T06:34:47;14.50;81.70
4584;DHT22;2304;47.606;12.186;2023-10-09T06:39:53;14.60;81.80
4584;DHT22;2304;47.606;12.186;2023-10-09T06:45:35;14.70;82.40
4584;DHT22;2304;47.606;12.186;2023-10-09T06:50:46;14.70;82.00
4584;DHT22;2304;47.606;12.186;2023-10-09T06:55:58;14.70;81.80
4584;DHT22;2304;47.606;12.186;2023-10-09T07:01:05;14.70;81.30
4584;DHT22;2304;47.606;12.186;2023-10-09T07:06:30;14.70;80.90
4584;DHT22;2304;47.606;12.186;2023-10-09T07:11:52;14.80;80.00
4584;DHT22;2304;47.606;12.186;2023-10-09T07:17:05;14.80;80.20
4584;DHT22;2304;47.606;12.186;2023-10-09T07:22:17;15.00;81.50
4584;DHT22;2304;47.606;12.186;2023-10-09T07:27:24;15.40;82.30
4584;DHT22;2304;47.606;12.186;2023-10-09T07:32:40;15.70;81.60
4584;DHT22;2304;47.606;12.186;2023-10-09T07:37:45;16.10;79.90
4584;DHT22;2304;47.606;12.186;2023-10-09T07:42:51;16.30;75.40
4584;DHT22;2304;47.606;12.186;2023-10-09T07:47:56;16.80;76.30
4584;DHT22;2304;47.606;12.186;2023-10-09T07:53:06;16.90;74.80
4584;DHT22;2304;47.606;12.186;2023-10-09T07:58:20;17.10;74.10
4584;DHT22;2304;47.606;12.186;2023-10-09T08:03:25;17.30;73.70
4584;DHT22;2304;47.606;12.186;2023-10-09T08:08:34;17.60;74.00
4584;DHT22;2304;47.606;12.186;2023-10-09T08:14:06;17.70;70.60
4584;DHT22;2304;47.606;12.186;2023-10-09T08:19:21;17.90;71.10
4584;DHT22;2304;47.606;12.186;2023-10-09T08:24:35;18.10;70.60
4584;DHT22;2304;47.606;12.186;2023-10-09T08:29:42;18.30;67.20
4584;DHT22;2304;47.606;12.186;2023-10-09T08:34:48;18.60;69.30
4584;DHT22;2304;47.606;12.186;2023-10-09T08:39:55;18.90;65.60
4584;DHT22;2304;47.606;12.186;2023-10-09T08:44:57;19.10;66.20
4584;DHT22;2304;47.606;12.186;2023-10-09T08:50:04;19.20;64.50
4584;DHT22;2304;47.606;12.186;2023-10-09T08:55:12;19.60;62.40
4584;DHT22;2304;47.606;12.186;2023-10-09T09:00:17;19.90;62.90
4584;DHT22;2304;47.606;12.186;2023-10-09T09:05:22;19.80;60.90
4584;DHT22;2304;47.606;12.186;2023-10-09T09:10:30;19.60;62.50
4584;DHT22;2304;47.606;12.186;2023-10-09T09:15:37;19.70;64.00
4584;DHT22;2304;47.606;12.186;2023-10-09T09:20:40;19.90;63.30
4584;DHT22;2304;47.606;12.186;2023-10-09T09:25:47;20.30;63.30
4584;DHT22;2304;47.606;12.186;2023-10-09T09:31:07;20.60;61.50
4584;DHT22;2304;47.606;12.186;2023-10-09T09:36:13;21.00;59.50
4584;DHT22;2304;47.606;12.186;2023-10-09T09:41:17;21.50;59.80
4584;DHT22;2304;47.606;12.186;2023-10-09T09:46:24;22.00;57.60
4584;DHT22;2304;47.606;12.186;2023-10-09T09:51:34;22.30;57.40
4584;DHT22;2304;47.606;12.186;2023-10-09T09:56:37;22.10;54.00
4584;DHT22;2304;47.606;12.186;2023-10-09T10:01:41;21.90;56.00
4584;DHT22;2304;47.606;12.186;2023-10-09T10:06:45;21.80;55.60
4584;DHT22;2304;47.606;12.186;2023-10-09T10:11:50;21.70;55.20
4584;DHT22;2304;47.606;12.186;2023-10-09T10:17:03;21.60;55.90
4584;DHT22;2304;47.606;12.186;2023-10-09T10:22:23;21.60;56.20
4584;DHT22;2304;47.606;12.186;2023-10-09T10:27:29;21.80;56.50
4584;DHT22;2304;47.606;12.186;2023-10-09T10:32:54;22.00;56.10
4584;DHT22;2304;47.606;12.186;2023-10-09T10:37:58;22.00;54.30
4584;DHT22;2304;47.606;12.186;2023-10-09T10:43:18;22.20;54.90
4584;DHT22;2304;47.606;12.186;2023-10-09T10:48:34;22.40;53.80
4584;DHT22;2304;47.606;12.186;2023-10-09T10:53:50;22.60;52.80
4584;DHT22;2304;47.606;12.186;2023-10-09T10:58:55;22.70;54.20
4584;DHT22;2304;47.606;12.186;2023-10-09T11:04:12;22.70;54.20
4584;DHT22;2304;47.606;12.186;2023-10-09T11:09:14;22.80;54.00
4584;DHT22;2304;47.606;12.186;2023-10-09T11:14:24;23.10;55.10
4584;DHT22;2304;47.606;12.186;2023-10-09T11:19:26;23.50;54.10
4584;DHT22;2304;47.606;12.186;2023-10-09T11:24:32;23.80;52.60
4584;DHT22;2304;47.606;12.186;2023-10-09T11:29:36;23.80;52.60
4584;DHT22;2304;47.606;12.186;2023-10-09T11:35:10;23.60;53.70
4584;DHT22;2304;47.606;12.186;2023-10-09T11:40:28;23.50;53.70
4584;DHT22;2304;47.606;12.186;2023-10-09T11:45:44;23.60;54.20
4584;DHT22;2304;47.606;12.186;2023-10-09T11:50:55;23.60;56.30
4584;DHT22;2304;47.606;12.186;2023-10-09T11:56:17;23.50;55.10
4584;DHT22;2304;47.606;12.186;2023-10-09T12:01:21;23.30;55.60
4584;DHT22;2304;47.606;12.186;2023-10-09T12:06:23;23.40;56.80
4584;DHT22;2304;47.606;12.186;2023-10-09T12:11:32;23.90;58.50
4584;DHT22;2304;47.606;12.186;2023-10-09T12:16:36;24.50;57.30
4584;DHT22;2304;47.606;12.186;2023-10-09T12:21:41;25.20;54.10
4584;DHT22;2304;47.606;12.186;2023-10-09T12:26:43;25.40;53.40
4584;DHT22;2304;47.606;12.186;2023-10-09T12:31:47;25.50;50.10
4584;DHT22;2304;47.606;12.186;2023-10-09T12:36:52;25.30;49.50
4584;DHT22;2304;47.606;12.186;2023-10-09T12:41:55;25.20;49.70
4584;DHT22;2304;47.606;12.186;2023-10-09T12:47:00;25.20;49.20
4584;DHT22;2304;47.606;12.186;2023-10-09T12:52:05;25.00;47.90
4584;DHT22;2304;47.606;12.186;2023-10-09T12:57:15;24.90;48.00
4584;DHT22;2304;47.606;12.186;2023-10-09T13:02:18;24.70;47.40
4584;DHT22;2304;47.606;12.186;2023-10-09T13:07:30;24.60;47.90
4584;DHT22;2304;47.606;12.186;2023-10-09T13:12:31;24.60;46.60
4584;DHT22;2304;47.606;12.186;2023-10-09T13:17:35;24.50;47.10
4584;DHT22;2304;47.606;12.186;2023-10-09T13:22:36;24.40;46.40
4584;DHT22;2304;47.606;12.186;2023-10-09T13:27:39;24.30;46.30
4584;DHT22;2304;47.606;12.186;2023-10-09T13:32:42;24.20;45.60
4584;DHT22;2304;47.606;12.186;2023-10-09T13:37:48;24.10;44.40
4584;DHT22;2304;47.606;12.186;2023-10-09T13:42:54;24.10;44.00
4584;DHT22;2304;47.606;12.186;2023-10-09T13:48:00;24.00;44.10
4584;DHT22;2304;47.606;12.186;2023-10-09T13:53:03;23.90;44.00
4584;DHT22;2304;47.606;12.186;2023-10-09T13:58:11;23.80;44.40
4584;DHT22;2304;47.606;12.186;2023-10-09T14:03:16;23.80;44.40
4584;DHT22;2304;47.606;12.186;2023-10-09T14:08:20;23.60;44.50
4584;DHT22;2304;47.606;12.186;2023-10-09T14:13:23;23.50;44.70
4584;DHT22;2304;47.606;12.186;2023-10-09T14:18:30;23.50;44.70
4584;DHT22;2304;47.606;12.186;2023-10-09T14:23:32;23.40;45.40
4584;DHT22;2304;47.606;12.186;2023-10-09T14:28:35;23.30;45.10
4584;DHT22;2304;47.606;12.186;2023-10-09T14:33:39;23.40;45.00
4584;DHT22;2304;47.606;12.186;2023-10-09T14:38:41;23.40;43.50
4584;DHT22;2304;47.606;12.186;2023-10-09T14:43:42;23.40;43.80
4584;DHT22;2304;47.606;12.186;2023-10-09T14:48:46;23.20;45.00
4584;DHT22;2304;47.606;12.186;2023-10-09T14:53:48;23.10;44.60
4584;DHT22;2304;47.606;12.186;2023-10-09T14:58:50;23.00;44.90
4584;DHT22;2304;47.606;12.186;2023-10-09T15:03:54;22.90;43.90
4584;DHT22;2304;47.606;12.186;2023-10-09T15:08:58;22.80;43.80
4584;DHT22;2304;47.606;12.186;2023-10-09T15:14:01;22.70;42.80
4584;DHT22;2304;47.606;12.186;2023-10-09T15:19:06;22.60;41.60
4584;DHT22;2304;47.606;12.186;2023-10-09T15:24:11;22.50;38.10
4584;DHT22;2304;47.606;12.186;2023-10-09T15:29:15;22.50;38.10
4584;DHT22;2304;47.606;12.186;2023-10-09T15:34:21;22.40;38.00
4584;DHT22;2304;47.606;12.186;2023-10-09T15:39:25;22.30;39.20
4584;DHT22;2304;47.606;12.186;2023-10-09T15:44:27;22.20;36.90
4584;DHT22;2304;47.606;12.186;2023-10-09T15:49:30;22.20;35.60
4584;DHT22;2304;47.606;12.186;2023-10-09T15:54:34;22.20;37.70
4584;DHT22;2304;47.606;12.186;2023-10-09T15:59:36;22.10;37.10
4584;DHT22;2304;47.606;12.186;2023-10-09T16:04:40;22.10;36.70
4584;DHT22;2304;47.606;12.186;2023-10-09T16:09:42;22.10;36.80
4584;DHT22;2304;47.606;12.186;2023-10-09T16:14:45;22.10;38.10
4584;DHT22;2304;47.606;12.186;2023-10-09T16:19:48;21.90;38.90
4584;DHT22;2304;47.606;12.186;2023-10-09T16:24:51;21.90;39.00
4584;DHT22;2304;47.606;12.186;2023-10-09T16:29:55;21.90;39.80
4584;DHT22;2304;47.606;12.186;2023-10-09T16:34:59;21.80;41.20
4584;DHT22;2304;47.606;12.186;2023-10-09T16:40:01;21.60;41.70
4584;DHT22;2304;47.606;12.186;2023-10-09T16:45:07;21.50;41.90
4584;DHT22;2304;47.606;12.186;2023-10-09T16:50:14;21.40;43.80
4584;DHT22;2304;47.606;12.186;2023-10-09T16:55:17;21.30;44.00
4584;DHT22;2304;47.606;12.186;2023-10-09T17:00:20;21.30;44.20
4584;DHT22;2304;47.606;12.186;2023-10-09T17:05:31;21.10;44.80
4584;DHT22;2304;47.606;12.186;2023-10-09T17:10:37;21.00;44.20
4584;DHT22;2304;47.606;12.186;2023-10-09T17:15:45;21.00;44.90
4584;DHT22;2304;47.606;12.186;2023-10-09T17:20:51;21.00;46.10
4584;DHT22;2304;47.606;12.186;2023-10-09T17:25:54;20.90;47.30
4584;DHT22;2304;47.606;12.186;2023-10-09T17:31:02;20.70;47.60
4584;DHT22;2304;47.606;12.186;2023-10-09T17:36:06;20.70;48.00
4584;DHT22;2304;47.606;12.186;2023-10-09T17:41:08;20.60;48.90
4584;DHT22;2304;47.606;12.186;2023-10-09T17:46:10;20.50;49.60
4584;DHT22;2304;47.606;12.186;2023-10-09T17:51:14;20.50;50.20
4584;DHT22;2304;47.606;12.186;2023-10-09T17:56:18;20.30;51.60
4584;DHT22;2304;47.606;12.186;2023-10-09T18:01:20;20.20;52.00
4584;DHT22;2304;47.606;12.186;2023-10-09T18:06:26;20.20;51.20
4584;DHT22;2304;47.606;12.186;2023-10-09T18:11:28;20.40;52.20
4584;DHT22;2304;47.606;12.186;2023-10-09T18:16:30;20.00;52.80
4584;DHT22;2304;47.606;12.186;2023-10-09T18:21:34;19.90;53.30
4584;DHT22;2304;47.606;12.186;2023-10-09T18:26:42;19.80;53.70
4584;DHT22;2304;47.606;12.186;2023-10-09T18:31:44;19.80;54.20
4584;DHT22;2304;47.606;12.186;2023-10-09T18:36:47;19.70;54.40
4584;DHT22;2304;47.606;12.186;2023-10-09T18:41:51;19.60;54.60
4584;DHT22;2304;47.606;12.186;2023-10-09T18:46:54;19.50;52.10
4584;DHT22;2304;47.606;12.186;2023-10-09T18:51:58;19.50;52.90
4584;DHT22;2304;47.606;12.186;2023-10-09T18:57:00;19.50;53.50
4584;DHT22;2304;47.606;12.186;2023-10-09T19:02:03;19.50;54.30
4584;DHT22;2304;47.606;12.186;2023-10-09T19:07:07;19.40;55.10
4584;DHT22;2304;47.606;12.186;2023-10-09T19:12:09;19.20;56.10
4584;DHT22;2304;47.606;12.186;2023-10-09T19:17:11;19.20;56.30
4584;DHT22;2304;47.606;12.186;2023-10-09T19:22:14;19.20;55.90
4584;DHT22;2304;47.606;12.186;2023-10-09T19:27:16;19.10;55.90
4584;DHT22;2304;47.606;12.186;2023-10-09T19:32:20;19.10;56.70
4584;DHT22;2304;47.606;12.186;2023-10-09T19:37:23;19.10;57.40
4584;DHT22;2304;47.606;12.186;2023-10-09T19:42:25;19.10;58.50
4584;DHT22;2304;47.606;12.186;2023-10-09T19:47:27;19.10;59.90
4584;DHT22;2304;47.606;12.186;2023-10-09T19:52:30;19.00;60.40
4584;DHT22;2304;47.606;12.186;2023-10-09T19:57:32;19.00;61.80
4584;DHT22;2304;47.606;12.186;2023-10-09T20:02:33;18.90;61.70
4584;DHT22;2304;47.606;12.186;2023-10-09T20:07:37;18.90;61.60
4584;DHT22;2304;47.606;12.186;2023-10-09T20:12:39;18.80;61.20
4584;DHT22;2304;47.606;12.186;2023-10-09T20:17:42;18.80;60.60
4584;DHT22;2304;47.606;12.186;2023-10-09T20:22:45;18.70;61.20
4584;DHT22;2304;47.606;12.186;2023-10-09T20:27:47;18.80;62.90
4584;DHT22;2304;47.606;12.186;2023-10-09T20:32:50;18.70;63.00
4584;DHT22;2304;47.606;12.186;2023-10-09T20:37:55;18.60;63.70
4584;DHT22;2304;47.606;12.186;2023-10-09T20:43:02;18.50;63.80
4584;DHT22;2304;47.606;12.186;2023-10-09T20:48:04;18.50;64.40
4584;DHT22;2304;47.606;12.186;2023-10-09T20:53:08;18.50;64.00
4584;DHT22;2304;47.606;12.186;2023-10-09T20:58:09;18.50;64.10
4584;DHT22;2304;47.606;12.186;2023-10-09T21:03:11;18.50;65.00
4584;DHT22;2304;47.606;12.186;2023-10-09T21:08:17;18.40;65.80
4584;DHT22;2304;47.606;12.186;2023-10-09T21:13:19;18.40;66.40
4584;DHT22;2304;47.606;12.186;2023-10-09T21:18:21;18.40;67.00
4584;DHT22;2304;47.606;12.186;2023-10-09T21:23:24;18.30;66.70
4584;DHT22;2304;47.606;12.186;2023-10-09T21:28:26;18.30;67.20
4584;DHT22;2304;47.606;12.186;2023-10-09T21:33:28;18.30;67.10
4584;DHT22;2304;47.606;12.186;2023-10-09T21:38:32;18.30;67.50
4584;DHT22;2304;47.606;12.186;2023-10-09T21:43:34;18.20;67.40
4584;DHT22;2304;47.606;12.186;2023-10-09T21:48:37;18.20;67.50
4584;DHT22;2304;47.606;12.186;2023-10-09T21:53:40;18.10;67.70
4584;DHT22;2304;47.606;12.186;2023-10-09T21:58:42;18.10;68.50
4584;DHT22;2304;47.606;12.186;2023-10-09T22:03:44;18.10;68.20
4584;DHT22;2304;47.606;12.186;2023-10-09T22:08:48;18.10;68.10
4584;DHT22;2304;47.606;12.186;2023-10-09T22:13:50;18.10;68.50
4584;DHT22;2304;47.606;12.186;2023-10-09T22:18:52;18.00;68.30
4584;DHT22;2304;47.606;12.186;2023-10-09T22:23:55;18.00;68.90
4584;DHT22;2304;47.606;12.186;2023-10-09T22:28:58;17.90;69.40
4584;DHT22;2304;47.606;12.186;2023-10-09T22:34:01;17.90;69.30
4584;DHT22;2304;47.606;12.186;2023-10-09T22:39:12;17.90;69.40
4584;DHT22;2304;47.606;12.186;2023-10-09T22:44:21;17.80;69.40
4584;DHT22;2304;47.606;12.186;2023-10-09T22:49:24;18.00;68.70
4584;DHT22;2304;47.606;12.186;2023-10-09T22:54:34;17.80;68.50
4584;DHT22;2304;47.606;12.186;2023-10-09T22:59:36;18.00;68.90
4584;DHT22;2304;47.606;12.186;2023-10-09T23:04:45;17.70;69.00
4584;DHT22;2304;47.606;12.186;2023-10-09T23:09:51;17.70;69.10
4584;DHT22;2304;47.606;12.186;2023-10-09T23:14:54;17.70;69.50
4584;DHT22;2304;47.606;12.186;2023-10-09T23:19:56;17.60;69.60
4584;DHT22;2304;47.606;12.186;2023-10-09T23:25:00;17.60;69.00
4584;DHT22;2304;47.606;12.186;2023-10-09T23:30:10;17.60;69.10
4584;DHT22;2304;47.606;12.186;2023-10-09T23:35:15;17.50;68.80
4584;DHT22;2304;47.606;12.186;2023-10-09T23:40:21;17.50;68.90
4584;DHT22;2304;47.606;12.186;2023-10-09T23:45:38;17.50;69.30
4584;DHT22;2304;47.606;12.186;2023-10-09T23:50:41;17.50;69.60
4584;DHT22;2304;47.606;12.186;2023-10-09T23:55:46;17.40;69.40
